KCCU

Red Cliff Pass Airport

Copper Mountain, Colorado, USA
METAR KCCU 231054Z AUTO 15007KT 10SM CLR 05/M05 A3034 RMK AO2
Observed Flight Rules
May-23 @ 10:54 UTC (17 minutes ago) Visual Flight Rules
Wind Visibility Clouds
150° at 7 knots 10 miles
  • Clear skies
Temperatures Readings
Current 5°C / 41°F
Dewpoint -5°C / 23°F
Humidity 49%
Altimeter 30.34" Hg
Pressure 1027 hPa
Elevation 3680
METAR KCCU 231054Z AUTO 15007KT 10SM CLR 05/M05 A3034 RMK AO2
Observed Flight Rules
May-23 @ 10:54 UTC
(17 minutes ago)
VFR
Wind Visibility
150° at 7 knots 10 miles
Clouds
  • Clear skies
Temperature Dewpoint
5°C / 41°F -5°C / 23°F
Humidity Altimeter Pressure
49% 30.34" Hg 1027 hPa